»·PEaware :: OEVSB KBUR-KLAS

OEVSB :: KBUR-KLAS

FLIGHT INFORMATION

Flight Status: Arrived
Operator: Unknown
More flights by this operator :: More flights under this callsign
Pilot: Mathias J. (24499)
Aircraft: Unknown
(DA62)
More flights by this aircraft type
Origin: KBUR Bob Hope-Burbank
United States
Destination: KLAS McCarran Intl
United States
More flights between these airports :: More routes between these airports
Route: +VNY3 DAG CRESO4
File this flight plan on PilotEdge
Remarks: I-5 Rating
Altitude:
(Current/Filed)
9,000ft
Speed:
(Current/Filed)
160kts
Departed: 17-Mar-20 10:47 AM
Arrived: 17-Mar-20 12:31 PM
Distance/Time
Traveled:
193nm/1:44
Distance/Time
To Go:
Arrived

Flight Plot

Page will automatically refresh every two minutes.

Flight plan parsing failed; only flown route is shown


Map Options




Map Legend


Flown Route
Filed Route
Departure Airport
Arrival Airport
Navaid (VOR, NDB)
Fix

Horizontal Profiles

Position Reports

Time Latitude Longitude Heading Altitude Ground
Speed
17-Mar-20 10:28 34.196337 -118.367565 358 721ft 0kts
17-Mar-20 10:29 34.196337 -118.367565 358 721ft 0kts
17-Mar-20 10:30 34.196337 -118.367565 358 721ft 0kts
17-Mar-20 10:31 34.196337 -118.367565 358 721ft 0kts
17-Mar-20 10:32 34.196337 -118.367565 358 721ft 0kts
17-Mar-20 10:33 34.196337 -118.367565 358 721ft 0kts
17-Mar-20 10:34 34.196337 -118.367565 358 721ft 0kts
17-Mar-20 10:35 34.196337 -118.367565 358 721ft 0kts
17-Mar-20 10:36 34.196337 -118.367565 358 721ft 0kts
17-Mar-20 10:37 34.196337 -118.367565 358 721ft 0kts
17-Mar-20 10:38 34.196337 -118.367565 358 721ft 0kts
17-Mar-20 10:39 34.196337 -118.367565 358 721ft 0kts
17-Mar-20 10:40 34.196337 -118.367565 358 721ft 0kts
17-Mar-20 10:41 34.196337 -118.367565 358 721ft 0kts
17-Mar-20 10:42 34.196337 -118.367565 358 721ft 0kts
17-Mar-20 10:43 34.196584 -118.367974 42 722ft 14kts
17-Mar-20 10:44 34.197125 -118.368924 320 724ft 0kts
17-Mar-20 10:45 34.197125 -118.368924 320 724ft 0kts
17-Mar-20 10:46 34.197867 -118.362832 89 722ft 81kts
17-Mar-20 10:47 34.202385 -118.339135 15 1582ft 73kts
17-Mar-20 10:48 34.212906 -118.356466 283 2500ft 75kts
17-Mar-20 10:49 34.215703 -118.381939 278 3513ft 79kts
17-Mar-20 10:51 34.215602 -118.411477 260 3950ft 93kts
17-Mar-20 10:52 34.199342 -118.441680 145 2648ft 129kts
17-Mar-20 10:53 34.198389 -118.399565 87 1466ft 134kts
17-Mar-20 10:54 34.197864 -118.365962 89 724ft 66kts
17-Mar-20 10:55 34.197051 -118.360339 211 714ft 0kts
17-Mar-20 10:56 34.196343 -118.364636 269 718ft 0kts
17-Mar-20 10:57 34.196343 -118.364657 269 718ft 0kts
17-Mar-20 10:58 34.196343 -118.364657 269 718ft 0kts
17-Mar-20 10:59 34.196343 -118.364657 269 718ft 0kts
17-Mar-20 11:00 34.196343 -118.364657 269 718ft 0kts
17-Mar-20 11:01 34.196343 -118.364657 269 718ft 0kts
17-Mar-20 11:02 34.196343 -118.364657 269 718ft 0kts
17-Mar-20 11:03 34.196343 -118.364657 269 718ft 0kts
17-Mar-20 11:04 34.196343 -118.364657 269 718ft 0kts
17-Mar-20 11:05 34.196343 -118.364657 269 718ft 0kts
17-Mar-20 11:06 34.196904 -118.367579 270 723ft 19kts
17-Mar-20 11:06 34.197088 -118.368909 326 724ft 0kts
17-Mar-20 11:08 34.197098 -118.368917 327 724ft 3kts
17-Mar-20 11:09 34.196624 -118.350841 128 1121ft 89kts
17-Mar-20 11:09 34.177552 -118.354892 229 1974ft 107kts
17-Mar-20 11:11 34.151598 -118.386122 224 3333ft 114kts
17-Mar-20 11:12 34.129244 -118.411769 245 4607ft 107kts
17-Mar-20 11:12 34.141302 -118.428621 350 5671ft 96kts
17-Mar-20 11:13 34.167917 -118.434482 351 6824ft 97kts
17-Mar-20 11:14 34.192838 -118.439905 351 7867ft 102kts
17-Mar-20 11:15 34.218411 -118.444478 351 8894ft 105kts
17-Mar-20 11:16 34.244387 -118.447987 351 9761ft 107kts
17-Mar-20 11:17 34.273060 -118.450541 351 10684ft 109kts
17-Mar-20 11:18 34.305736 -118.452347 4 11025ft 162kts
17-Mar-20 11:19 34.348437 -118.431684 21 11026ft 195kts
17-Mar-20 11:20 34.399468 -118.405747 20 11030ft 199kts
17-Mar-20 11:21 34.441067 -118.368335 53 11021ft 193kts
17-Mar-20 11:22 34.468771 -118.324244 53 11010ft 192kts
17-Mar-20 11:23 34.497269 -118.278812 53 10992ft 192kts
17-Mar-20 11:24 34.526671 -118.231872 53 10978ft 193kts
17-Mar-20 11:25 34.556093 -118.184821 53 10968ft 193kts
17-Mar-20 11:26 34.585064 -118.138427 53 10964ft 193kts
17-Mar-20 11:27 34.608125 -118.101455 53 10963ft 193kts
17-Mar-20 11:28 34.629246 -118.065186 73 10946ft 191kts
17-Mar-20 11:29 34.637145 -118.012560 85 10994ft 186kts
17-Mar-20 11:30 34.645097 -117.941475 85 10997ft 188kts
17-Mar-20 11:31 34.654032 -117.859565 85 10995ft 188kts
17-Mar-20 11:32 34.662857 -117.777924 85 10995ft 189kts
17-Mar-20 11:33 34.679557 -117.704797 73 10997ft 191kts
17-Mar-20 11:34 34.695344 -117.643116 73 10998ft 191kts
17-Mar-20 11:35 34.711227 -117.581064 73 11000ft 192kts
17-Mar-20 11:36 34.727089 -117.518981 73 11001ft 192kts
17-Mar-20 11:37 34.742898 -117.456924 73 11001ft 192kts
17-Mar-20 11:38 34.758695 -117.394761 73 11001ft 192kts
17-Mar-20 11:39 34.773725 -117.335506 73 10999ft 192kts
17-Mar-20 11:40 34.789469 -117.273279 73 11000ft 192kts
17-Mar-20 11:41 34.805117 -117.211273 74 11002ft 192kts
17-Mar-20 11:42 34.820728 -117.149276 74 11004ft 192kts
17-Mar-20 11:43 34.836393 -117.086913 74 11006ft 192kts
17-Mar-20 11:44 34.852042 -117.024459 75 11008ft 194kts
17-Mar-20 11:45 34.867876 -116.961083 75 11009ft 196kts
17-Mar-20 11:46 34.883817 -116.897127 76 11010ft 199kts
17-Mar-20 11:47 34.899871 -116.832564 76 11011ft 200kts
17-Mar-20 11:48 34.915760 -116.768522 76 11011ft 199kts
17-Mar-20 11:49 34.932074 -116.702594 76 11011ft 198kts
17-Mar-20 11:50 34.947929 -116.638309 77 11012ft 197kts
17-Mar-20 11:51 34.964863 -116.574832 66 11016ft 198kts
17-Mar-20 11:52 34.990573 -116.515810 64 11009ft 197kts
17-Mar-20 11:53 35.016396 -116.457645 64 11006ft 195kts
17-Mar-20 11:54 35.041994 -116.399936 65 11002ft 192kts
17-Mar-20 11:55 35.067306 -116.342775 65 11001ft 191kts
17-Mar-20 11:56 35.092556 -116.285674 65 11001ft 190kts
17-Mar-20 11:57 35.117650 -116.228828 65 10996ft 189kts
17-Mar-20 11:58 35.142654 -116.172088 65 10996ft 189kts
17-Mar-20 11:59 35.167544 -116.115517 65 10997ft 189kts
17-Mar-20 12:00 35.192415 -116.058887 65 10997ft 189kts
17-Mar-20 12:01 35.217220 -116.002328 65 10997ft 189kts
17-Mar-20 12:02 35.242085 -115.945525 65 10997ft 189kts
17-Mar-20 12:03 35.266887 -115.888774 65 10995ft 189kts
17-Mar-20 12:04 35.291666 -115.831983 65 10988ft 189kts
17-Mar-20 12:05 35.319600 -115.776202 51 10758ft 199kts
17-Mar-20 12:06 35.357509 -115.725243 49 10257ft 204kts
17-Mar-20 12:07 35.395216 -115.674931 49 9782ft 202kts
17-Mar-20 12:08 35.430931 -115.627229 50 9969ft 182kts
17-Mar-20 12:09 35.465153 -115.581432 49 9972ft 183kts
17-Mar-20 12:10 35.499869 -115.534904 49 9970ft 183kts
17-Mar-20 12:11 35.533968 -115.489203 49 9975ft 181kts
17-Mar-20 12:12 35.567846 -115.443744 49 9973ft 182kts
17-Mar-20 12:13 35.599620 -115.401048 49 9973ft 182kts
17-Mar-20 12:14 35.629543 -115.360719 49 9973ft 182kts
17-Mar-20 12:15 35.660983 -115.318177 49 9589ft 198kts
17-Mar-20 12:16 35.702285 -115.262465 49 8720ft 195kts
17-Mar-20 12:17 35.737116 -115.215403 49 7965ft 167kts
17-Mar-20 12:18 35.772063 -115.197752 21 7955ft 125kts
17-Mar-20 12:19 35.785076 -115.165234 52 7972ft 117kts
17-Mar-20 12:20 35.823136 -115.149349 11 7982ft 171kts
17-Mar-20 12:21 35.871299 -115.134250 11 7970ft 187kts
17-Mar-20 12:22 35.922377 -115.118160 11 7967ft 191kts
17-Mar-20 12:23 35.968512 -115.103447 11 7749ft 188kts
17-Mar-20 12:24 36.007899 -115.090543 11 7037ft 185kts
17-Mar-20 12:25 36.052938 -115.076071 11 6134ft 183kts
17-Mar-20 12:26 36.100597 -115.065153 358 5086ft 182kts
17-Mar-20 12:27 36.133659 -115.094855 269 4123ft 154kts
17-Mar-20 12:28 36.123283 -115.132429 234 3245ft 140kts
17-Mar-20 12:29 36.100028 -115.156159 205 2172ft 81kts
17-Mar-20 12:30 36.089344 -115.163327 288 2128ft 6kts
17-Mar-20 12:31 36.089391 -115.165326 241 2135ft 18kts
17-Mar-20 12:32 36.089760 -115.166467 356 2137ft 4kts
17-Mar-20 12:33 36.090746 -115.166538 356 2135ft 4kts

Navigation Log

Ident Type
Flight plan parsing failed, navigation log unavailable